Time;durP1;ratioP1;P1;durP2;ratioP2;P2;SDS_P1;SDS_P2;PMS_P1;PMS_P2;Temp;Humidity;BMP_temperature;BMP_pressure;BME280_temperature;BME280_humidity;BME280_pressure;Samples;Min_cycle;Max_cycle;Signal;HPM_P1;HPM_P2
2022/09/12 00:03:03;;;;;;;44.55;9.45;;;;;13.20;96500.00;;;;8427650;28;20214;-67
2022/09/12 00:07:06;;;;;;;88.20;9.63;;;;;13.10;96508.00;;;;8428884;28;20659;-67
2022/09/12 00:11:12;;;;;;;61.78;10.52;;;;;13.10;96507.00;;;;8428558;28;20218;-66
2022/09/12 00:15:16;;;;;;;89.25;10.65;;;;;13.00;96500.00;;;;8428596;28;20219;-67
2022/09/12 00:19:19;;;;;;;193.95;11.90;;;;;13.00;96489.00;;;;8428727;28;20226;-67
2022/09/12 00:23:23;;;;;;;319.52;19.58;;;;;12.90;96491.00;;;;8428221;28;20347;-67
2022/09/12 00:27:27;;;;;;;221.60;15.70;;;;;12.70;96490.00;;;;8428353;28;20238;-66
2022/09/12 00:31:31;;;;;;;382.70;21.30;;;;;12.70;96490.00;;;;8427948;28;20617;-66
2022/09/12 00:35:35;;;;;;;179.57;16.05;;;;;12.80;96480.00;;;;8427868;28;20234;-67
2022/09/12 00:40:11;;;;;;;295.85;21.05;;;;;12.70;96475.00;;;;8427607;28;20229;-66
2022/09/12 00:44:43;;;;;;;269.95;18.60;;;;;12.70;96486.00;;;;8427952;28;20217;-66
2022/09/12 00:48:52;;;;;;;117.32;11.13;;;;;12.60;96475.00;;;;8427477;28;20310;-66
2022/09/12 00:53:00;;;;;;;95.70;10.57;;;;;12.60;96478.00;;;;8427915;28;20256;-66
2022/09/12 00:57:32;;;;;;;129.93;13.38;;;;;12.60;96468.00;;;;8426842;28;20212;-67
2022/09/12 01:01:36;;;;;;;227.00;16.48;;;;;12.40;96468.00;;;;8427273;28;20275;-68
2022/09/12 01:05:43;;;;;;;356.80;22.38;;;;;12.30;96465.00;;;;8429032;28;20316;-66
2022/09/12 01:10:14;;;;;;;101.45;14.55;;;;;12.20;96460.00;;;;8434682;28;20244;-67
2022/09/12 01:14:18;;;;;;;352.05;20.42;;;;;12.20;96448.00;;;;8433644;28;20256;-66
2022/09/12 01:18:28;;;;;;;169.00;15.55;;;;;12.00;96455.00;;;;8434025;28;20217;-67
2022/09/12 01:22:50;;;;;;;38.10;9.45;;;;;11.90;96456.00;;;;8433336;28;20230;-67
2022/09/12 01:27:31;;;;;;;15.25;8.13;;;;;11.90;96463.00;;;;8433770;28;20243;-67
2022/09/12 01:31:41;;;;;;;77.40;11.48;;;;;11.90;96455.00;;;;8432888;28;20341;-67
2022/09/12 01:35:54;;;;;;;104.88;12.57;;;;;11.80;96449.00;;;;8433450;28;20235;-67
2022/09/12 01:40:22;;;;;;;18.48;7.20;;;;;11.80;96458.00;;;;8432262;28;20227;-67
2022/09/12 01:44:35;;;;;;;37.47;8.52;;;;;11.90;96458.00;;;;8433337;28;20228;-67
2022/09/12 01:48:46;;;;;;;102.82;11.70;;;;;11.90;96450.00;;;;8432714;28;20221;-67
2022/09/12 01:52:53;;;;;;;553.20;26.00;;;;;11.90;96448.00;;;;8433445;28;20557;-67
2022/09/12 01:57:00;;;;;;;225.82;14.50;;;;;11.80;96448.00;;;;8432290;28;20217;-67
2022/09/12 02:01:09;;;;;;;218.07;16.45;;;;;11.90;96444.00;;;;8432501;28;20224;-67
2022/09/12 02:05:19;;;;;;;325.05;20.02;;;;;11.90;96447.00;;;;8431159;28;20217;-67
2022/09/12 02:09:26;;;;;;;174.77;14.25;;;;;11.90;96436.00;;;;8432460;28;20229;-67
2022/09/12 02:13:34;;;;;;;190.68;13.57;;;;;11.80;96439.00;;;;8431869;28;20227;-67
2022/09/12 02:17:42;;;;;;;312.00;17.55;;;;;11.80;96428.00;;;;8431323;28;20322;-67
2022/09/12 02:21:51;;;;;;;63.97;8.85;;;;;11.80;96426.00;;;;8431625;28;20222;-67
2022/09/12 02:25:57;;;;;;;144.18;10.98;;;;;11.70;96424.00;;;;8432090;28;25067;-67
2022/09/12 02:30:00;;;;;;;22.73;6.55;;;;;11.60;96421.00;;;;8430731;28;20226;-67
2022/09/12 02:34:41;;;;;;;16.40;5.32;;;;;11.70;96415.00;;;;8431750;28;20232;-67
2022/09/12 02:38:48;;;;;;;212.80;14.85;;;;;11.70;96415.00;;;;8430846;28;20703;-67
2022/09/12 02:42:51;;;;;;;259.05;14.90;;;;;11.50;96409.00;;;;8431490;28;20576;-67
2022/09/12 02:46:58;;;;;;;240.30;14.57;;;;;11.30;96412.00;;;;8430982;28;20225;-68
2022/09/12 02:51:02;;;;;;;18.75;5.32;;;;;11.30;96403.00;;;;8430793;28;20227;-67
2022/09/12 02:55:09;;;;;;;10.90;5.68;;;;;11.20;96413.00;;;;8430205;28;20225;-68
2022/09/12 02:59:16;;;;;;;6.87;5.10;;;;;11.20;96406.00;;;;8429559;28;20290;-67
2022/09/12 03:03:39;;;;;;;8.75;5.68;;;;;11.20;96405.00;;;;8430684;28;20219;-68
2022/09/12 03:08:13;;;;;;;6.60;5.10;;;;;11.20;96402.00;;;;8431164;28;20278;-67
2022/09/12 03:12:38;;;;;;;8.32;4.65;;;;;11.20;96407.00;;;;8430105;28;20212;-68
2022/09/12 03:16:48;;;;;;;24.50;5.85;;;;;11.00;96410.00;;;;8429716;28;20594;-67
2022/09/12 03:21:18;;;;;;;5.32;3.95;;;;;10.90;96402.00;;;;8430433;28;20706;-68
2022/09/12 03:25:25;;;;;;;20.35;5.65;;;;;10.80;96406.00;;;;8430170;28;20219;-68
2022/09/12 03:29:30;;;;;;;35.10;6.10;;;;;11.00;96417.00;;;;8428236;28;20250;-68
2022/09/12 03:34:11;;;;;;;23.70;5.47;;;;;10.90;96410.00;;;;8429975;28;20219;-68
2022/09/12 03:38:15;;;;;;;68.63;6.45;;;;;11.00;96402.00;;;;8428995;28;20220;-67
2022/09/12 03:42:18;;;;;;;128.73;10.43;;;;;11.00;96408.00;;;;8429733;28;20234;-68
2022/09/12 03:46:22;;;;;;;174.55;11.30;;;;;10.90;96402.00;;;;8428957;28;20215;-67
2022/09/12 03:50:26;;;;;;;19.83;5.03;;;;;10.80;96406.00;;;;8429514;28;20224;-68
2022/09/12 03:55:00;;;;;;;49.53;6.43;;;;;10.80;96401.00;;;;8428562;28;20569;-67
2022/09/12 03:59:05;;;;;;;10.88;4.95;;;;;10.80;96401.00;;;;8428721;28;20211;-68
2022/09/12 04:03:10;;;;;;;14.32;5.00;;;;;10.70;96402.00;;;;8428756;28;20225;-67
2022/09/12 04:07:13;;;;;;;5.13;4.50;;;;;10.50;96403.00;;;;8428346;28;20219;-68
2022/09/12 04:11:17;;;;;;;13.10;4.60;;;;;10.40;96407.00;;;;8428655;28;20664;-67
2022/09/12 04:15:20;;;;;;;21.67;6.10;;;;;10.40;96401.00;;;;8428557;28;20223;-67
2022/09/12 04:19:25;;;;;;;8.88;5.13;;;;;10.40;96396.00;;;;8428262;28;20238;-68
2022/09/12 04:23:28;;;;;;;41.30;7.20;;;;;10.40;96401.00;;;;8427960;28;20230;-68
2022/09/12 04:27:31;;;;;;;25.42;6.10;;;;;10.20;96406.00;;;;8428623;28;20231;-68
2022/09/12 04:31:34;;;;;;;28.00;5.55;;;;;10.10;96408.00;;;;8427777;28;20219;-68
2022/09/12 04:36:15;;;;;;;29.42;6.05;;;;;10.10;96407.00;;;;8428300;28;20215;-68
2022/09/12 04:40:18;;;;;;;19.35;6.32;;;;;10.20;96404.00;;;;8427283;28;20219;-68
2022/09/12 04:44:21;;;;;;;256.50;14.60;;;;;10.20;96402.00;;;;8428000;28;20223;-68
2022/09/12 04:48:25;;;;;;;24.48;5.93;;;;;10.30;96400.00;;;;8427175;28;20276;-68
2022/09/12 04:52:30;;;;;;;13.40;4.80;;;;;10.40;96401.00;;;;8426647;28;20227;-67
2022/09/12 04:57:04;;;;;;;48.97;7.47;;;;;10.30;96401.00;;;;8427303;28;20214;-68
2022/09/12 05:01:08;;;;;;;137.73;10.35;;;;;10.30;96407.00;;;;8427667;28;20601;-68
2022/09/12 05:05:11;;;;;;;19.83;6.50;;;;;10.40;96406.00;;;;8426819;28;20219;-67
2022/09/12 05:09:50;;;;;;;8.82;5.93;;;;;10.40;96407.00;;;;8426762;28;20249;-67
2022/09/12 05:13:53;;;;;;;11.75;5.93;;;;;10.50;96407.00;;;;8426063;28;20242;-68
2022/09/12 05:17:56;;;;;;;14.25;6.65;;;;;10.60;96417.00;;;;8427605;28;20310;-68
2022/09/12 05:21:59;;;;;;;40.72;8.57;;;;;10.70;96419.00;;;;8427061;28;20238;-68
2022/09/12 05:26:05;;;;;;;99.23;12.03;;;;;10.90;96418.00;;;;8427099;28;20219;-68
2022/09/12 05:30:09;;;;;;;151.70;14.82;;;;;11.10;96421.00;;;;8427181;28;20222;-68
2022/09/12 05:34:12;;;;;;;57.92;10.45;;;;;11.30;96428.00;;;;8426609;28;20229;-68
2022/09/12 05:38:16;;;;;;;26.05;7.32;;;;;11.40;96438.00;;;;8425594;28;20221;-67
2022/09/12 05:42:20;;;;;;;123.32;12.25;;;;;11.60;96440.00;;;;8426225;28;20572;-68
2022/09/12 05:46:25;;;;;;;138.30;15.30;;;;;11.70;96439.00;;;;8426973;28;20637;-67
2022/09/12 05:50:29;;;;;;;44.88;9.20;;;;;11.90;96444.00;;;;8426376;28;20261;-67
2022/09/12 05:55:06;;;;;;;76.78;11.35;;;;;12.00;96444.00;;;;8431557;28;20226;-68
2022/09/12 05:59:13;;;;;;;193.52;23.27;;;;;12.30;96448.00;;;;8431482;28;20564;-68
2022/09/12 06:03:16;;;;;;;65.97;12.38;;;;;12.40;96449.00;;;;8432034;28;20236;-68
2022/09/12 06:07:19;;;;;;;61.83;10.50;;;;;12.50;96448.00;;;;8431877;28;20220;-67
2022/09/12 06:11:24;;;;;;;58.47;12.25;;;;;12.70;96447.00;;;;8432299;28;20685;-68
2022/09/12 06:15:29;;;;;;;38.45;11.90;;;;;12.90;96448.00;;;;8431776;28;20236;-68
2022/09/12 06:19:32;;;;;;;127.72;12.57;;;;;13.10;96449.00;;;;8432030;28;20216;-68
2022/09/12 06:24:09;;;;;;;76.72;13.48;;;;;13.30;96449.00;;;;8432121;28;20237;-68
2022/09/12 06:28:12;;;;;;;45.55;10.50;;;;;13.60;96449.00;;;;8431505;28;20245;-68
2022/09/12 06:32:17;;;;;;;192.63;19.52;;;;;14.00;96442.00;;;;8431796;28;20249;-67
2022/09/12 06:36:22;;;;;;;90.65;11.73;;;;;14.20;96449.00;;;;8431410;28;20230;-68
2022/09/12 06:40:26;;;;;;;217.68;16.90;;;;;14.30;96450.00;;;;8431469;28;20238;-68
2022/09/12 06:44:30;;;;;;;45.45;9.63;;;;;14.70;96445.00;;;;8431000;28;20226;-68
2022/09/12 06:49:07;;;;;;;68.43;11.00;;;;;15.00;96443.00;;;;8431467;28;20215;-69
2022/09/12 06:53:11;;;;;;;101.25;12.25;;;;;15.30;96457.00;;;;8430382;28;20348;-69
2022/09/12 06:57:15;;;;;;;48.33;9.88;;;;;15.50;96453.00;;;;8430727;28;20269;-69
2022/09/12 07:01:20;;;;;;;50.78;9.10;;;;;15.90;96450.00;;;;8429746;28;20249;-68
2022/09/12 07:05:47;;;;;;;28.42;9.35;;;;;16.20;96463.00;;;;8430800;28;20583;-68
2022/09/12 07:09:51;;;;;;;80.47;10.35;;;;;16.50;96462.00;;;;8430049;28;20223;-68
2022/09/12 07:13:56;;;;;;;114.57;11.65;;;;;16.50;96457.00;;;;8430184;28;20242;-68
2022/09/12 07:18:30;;;;;;;24.70;7.63;;;;;16.60;96462.00;;;;8430078;28;20219;-69
2022/09/12 07:22:33;;;;;;;48.30;8.88;;;;;16.90;96450.00;;;;8429878;28;20207;-69
2022/09/12 07:26:38;;;;;;;48.60;8.00;;;;;17.20;96454.00;;;;8429744;28;20215;-68
2022/09/12 07:30:42;;;;;;;189.30;13.07;;;;;17.60;96453.00;;;;8429754;28;20308;-68
2022/09/12 07:34:45;;;;;;;38.55;7.50;;;;;17.70;96458.00;;;;8428456;28;20692;-68
2022/09/12 07:38:48;;;;;;;48.38;8.20;;;;;17.70;96467.00;;;;8429538;28;20540;-68
2022/09/12 07:43:24;;;;;;;97.38;9.20;;;;;17.60;96459.00;;;;8428169;28;20362;-68
2022/09/12 07:47:27;;;;;;;34.67;8.00;;;;;17.70;96459.00;;;;8429047;28;20564;-68
2022/09/12 07:51:30;;;;;;;13.63;7.85;;;;;18.00;96472.00;;;;8428616;28;20215;-68
2022/09/12 07:56:05;;;;;;;23.42;7.43;;;;;18.40;96471.00;;;;8429274;28;20656;-68
2022/09/12 08:00:11;;;;;;;14.18;7.13;;;;;18.80;96477.00;;;;8428631;28;20219;-68
2022/09/12 08:04:14;;;;;;;10.90;6.82;;;;;19.20;96480.00;;;;8429267;28;20223;-68
2022/09/12 08:08:17;;;;;;;6.90;6.20;;;;;19.60;96485.00;;;;8428079;28;20687;-68
2022/09/12 08:12:20;;;;;;;8.23;6.50;;;;;20.00;96495.00;;;;8428294;28;20598;-68
2022/09/12 08:16:26;;;;;;;9.15;6.50;;;;;20.50;96497.00;;;;8428195;28;20273;-67
2022/09/12 08:21:00;;;;;;;7.90;6.75;;;;;21.00;96489.00;;;;8428257;28;20620;-67
2022/09/12 08:25:03;;;;;;;8.07;6.75;;;;;21.40;96497.00;;;;8427272;28;20673;-67
2022/09/12 08:29:06;;;;;;;9.48;6.43;;;;;21.80;96495.00;;;;8428203;28;20219;-68
2022/09/12 08:33:45;;;;;;;6.97;6.30;;;;;22.70;96507.00;;;;8428527;28;20223;-67
2022/09/12 08:37:48;;;;;;;5.60;5.10;;;;;23.80;96501.00;;;;8427064;28;20249;-67
2022/09/12 08:42:00;;;;;;;5.95;5.38;;;;;24.40;96503.00;;;;8427973;28;20211;-67
2022/09/12 08:46:12;;;;;;;7.75;6.68;;;;;24.20;96507.00;;;;8427126;28;20276;-67
2022/09/12 08:50:43;;;;;;;5.93;5.43;;;;;24.40;96500.00;;;;8427498;28;20219;-67
2022/09/12 08:54:53;;;;;;;5.30;4.88;;;;;24.50;96496.00;;;;8426966;28;20657;-67
2022/09/12 08:58:57;;;;;;;6.75;5.90;;;;;25.00;96498.00;;;;8427890;28;20227;-67
2022/09/12 09:03:25;;;;;;;7.20;6.50;;;;;25.20;96495.00;;;;8427528;28;20302;-68
2022/09/12 09:08:07;;;;;;;8.05;6.90;;;;;25.70;96490.00;;;;8427670;28;20662;-67
2022/09/12 09:12:17;;;;;;;7.88;6.38;;;;;25.80;96499.00;;;;8427068;28;20211;-67
2022/09/12 09:21:41;;;;;;;6.68;6.05;;;;;25.90;96507.00;;;;8426495;28;20302;-67
2022/09/12 09:25:54;;;;;;;8.57;6.85;;;;;26.00;96493.00;;;;8426473;28;20234;-67
2022/09/12 09:30:20;;;;;;;6.00;5.40;;;;;26.20;96497.00;;;;8432794;28;20215;-67
2022/09/12 09:34:27;;;;;;;5.93;5.43;;;;;26.30;96499.00;;;;8433954;28;20223;-65
2022/09/12 09:39:01;;;;;;;6.03;5.53;;;;;26.60;96500.00;;;;8433195;28;20223;-65
2022/09/12 09:43:21;;;;;;;11.15;6.72;;;;;26.80;96492.00;;;;8431899;28;20222;-63
2022/09/12 09:47:25;;;;;;;8.90;6.05;;;;;27.00;96495.00;;;;8432732;28;20219;-63
2022/09/12 09:51:37;;;;;;;5.95;5.45;;;;;27.20;96494.00;;;;8432849;28;20211;-64
2022/09/12 09:55:44;;;;;;;5.68;5.18;;;;;27.20;96495.00;;;;8433493;28;20227;-64
2022/09/12 09:59:49;;;;;;;7.68;5.40;;;;;27.30;96489.00;;;;8432054;28;20230;-65
2022/09/12 10:03:53;;;;;;;7.93;5.70;;;;;27.40;96489.00;;;;8433017;28;20667;-65
2022/09/12 10:08:29;;;;;;;5.10;4.70;;;;;27.50;96483.00;;;;8431936;28;20541;-65
2022/09/12 10:12:32;;;;;;;5.47;5.00;;;;;27.70;96486.00;;;;8432754;28;20249;-65
2022/09/12 10:16:51;;;;;;;5.90;5.40;;;;;27.30;96477.00;;;;8431921;28;20300;-64
2022/09/12 10:20:54;;;;;;;5.40;4.90;;;;;27.10;96473.00;;;;8432143;28;20214;-65
2022/09/12 10:25:00;;;;;;;5.20;4.70;;;;;27.40;96472.00;;;;8431928;28;20219;-65
2022/09/12 10:29:42;;;;;;;5.82;5.30;;;;;27.50;96483.00;;;;8431465;28;20219;-65
2022/09/12 10:33:51;;;;;;;5.20;4.70;;;;;27.30;96478.00;;;;8431178;28;20234;-65
2022/09/12 10:37:57;;;;;;;6.30;5.40;;;;;26.70;96472.00;;;;8431618;28;20234;-65
2022/09/12 10:42:00;;;;;;;5.25;4.57;;;;;26.80;96483.00;;;;8429998;28;20222;-65
2022/09/12 10:46:22;;;;;;;6.25;4.90;;;;;27.00;96475.00;;;;8431240;28;20660;-65
2022/09/12 10:50:31;;;;;;;4.97;4.13;;;;;27.10;96476.00;;;;8418014;28;20664;-65
2022/09/12 10:54:34;;;;;;;5.00;4.50;;;;;27.00;96466.00;;;;8430784;28;20223;-65
2022/09/12 10:59:13;;;;;;;4.85;4.45;;;;;26.70;96460.00;;;;8431697;28;20552;-65
2022/09/12 11:03:24;;;;;;;5.38;4.43;;;;;26.60;96462.00;;;;8430817;28;20705;-65
2022/09/12 11:07:39;;;;;;;6.30;5.28;;;;;26.60;96455.00;;;;8430653;28;20229;-65
2022/09/12 11:12:07;;;;;;;5.97;4.85;;;;;26.30;96454.00;;;;8430387;28;20238;-65
2022/09/12 11:16:21;;;;;;;5.10;4.22;;;;;25.40;96445.00;;;;8429955;28;20230;-65
2022/09/12 11:20:53;;;;;;;4.82;4.43;;;;;24.80;96441.00;;;;8430243;28;20641;-65
2022/09/12 11:25:28;;;;;;;6.82;4.68;;;;;24.40;96444.00;;;;8430390;28;20215;-64
2022/09/12 11:29:47;;;;;;;5.13;4.63;;;;;24.80;96433.00;;;;8429675;28;20275;-64
2022/09/12 11:34:09;;;;;;;4.22;3.83;;;;;25.30;96439.00;;;;8429780;28;20276;-65
2022/09/12 11:38:41;;;;;;;7.70;5.30;;;;;25.60;96433.00;;;;8428975;28;20218;-64
2022/09/12 11:42:49;;;;;;;5.30;4.50;;;;;25.80;96433.00;;;;8429720;28;20568;-64
2022/09/12 11:46:53;;;;;;;5.32;4.82;;;;;25.80;96438.00;;;;8428939;28;20306;-65
2022/09/12 11:51:35;;;;;;;6.07;5.13;;;;;25.40;96428.00;;;;8428342;28;20219;-65
2022/09/12 11:55:48;;;;;;;5.72;4.03;;;;;25.20;96436.00;;;;8428540;28;20215;-65
2022/09/12 11:59:57;;;;;;;4.63;4.10;;;;;25.70;96428.00;;;;8429693;28;20219;-65
2022/09/12 12:04:32;;;;;;;4.40;4.00;;;;;26.20;96426.00;;;;8428697;28;20215;-64
2022/09/12 12:08:39;;;;;;;4.20;3.90;;;;;26.50;96425.00;;;;8429400;28;20219;-65
2022/09/12 12:12:42;;;;;;;3.90;3.60;;;;;26.50;96423.00;;;;8427816;28;20234;-64
2022/09/12 12:17:22;;;;;;;5.20;4.70;;;;;26.30;96422.00;;;;8429164;28;20219;-64
2022/09/12 12:21:39;;;;;;;4.72;4.32;;;;;26.30;96419.00;;;;8428363;28;20211;-64
2022/09/12 12:25:52;;;;;;;4.93;4.53;;;;;26.50;96422.00;;;;8428356;28;20223;-64
2022/09/12 12:29:55;;;;;;;4.28;3.97;;;;;26.80;96426.00;;;;8427767;28;20219;-65
2022/09/12 12:34:20;;;;;;;4.22;3.70;;;;;27.10;96411.00;;;;8428275;28;20215;-64
2022/09/12 12:38:29;;;;;;;4.13;3.83;;;;;27.20;96414.00;;;;8428107;28;20526;-65
2022/09/12 12:43:04;;;;;;;5.00;4.50;;;;;27.30;96407.00;;;;8428012;28;20284;-64
2022/09/12 12:47:18;;;;;;;4.22;3.92;;;;;27.30;96405.00;;;;8427622;28;20215;-64
2022/09/12 12:52:02;;;;;;;4.80;4.30;;;;;27.40;96399.00;;;;8428010;28;20272;-65
2022/09/12 12:56:35;;;;;;;6.18;4.45;;;;;27.70;96402.00;;;;8427153;28;20215;-65
2022/09/12 13:00:40;;;;;;;6.10;4.60;;;;;27.80;96388.00;;;;8427865;28;20265;-65
2022/09/12 13:04:45;;;;;;;4.88;4.35;;;;;27.70;96389.00;;;;8434837;28;20223;-65
2022/09/12 13:08:58;;;;;;;6.68;4.30;;;;;27.40;96389.00;;;;8434712;28;20222;-65
2022/09/12 13:13:07;;;;;;;4.68;4.28;;;;;27.50;96378.00;;;;8434515;28;20223;-65
2022/09/12 13:17:17;;;;;;;5.32;4.05;;;;;27.70;96378.00;;;;8433870;28;20276;-65
2022/09/12 13:21:55;;;;;;;5.20;4.35;;;;;27.70;96373.00;;;;8434485;28;20227;-65
2022/09/12 13:25:59;;;;;;;5.93;5.00;;;;;27.60;96373.00;;;;8433688;28;20215;-65
2022/09/12 13:30:08;;;;;;;5.55;4.97;;;;;27.70;96362.00;;;;8433236;28;20219;-65
2022/09/12 13:34:17;;;;;;;9.52;5.40;;;;;27.60;96358.00;;;;8433566;28;20226;-64
2022/09/12 13:38:30;;;;;;;5.28;4.82;;;;;27.40;96353.00;;;;8433140;28;20231;-65
2022/09/12 13:42:47;;;;;;;5.53;4.40;;;;;27.40;96352.00;;;;8433182;28;20610;-64
2022/09/12 13:46:53;;;;;;;5.65;4.70;;;;;27.40;96351.00;;;;8433265;28;20223;-64
2022/09/12 13:50:59;;;;;;;5.38;4.95;;;;;27.50;96348.00;;;;8433578;28;20571;-65
2022/09/12 13:55:07;;;;;;;4.90;4.35;;;;;27.40;96349.00;;;;8433848;28;20675;-65
2022/09/12 13:59:12;;;;;;;5.90;4.20;;;;;27.50;96347.00;;;;8432873;28;20211;-65
2022/09/12 14:07:55;;;;;;;4.38;3.97;;;;;27.20;96343.00;;;;8432295;28;20239;-65
2022/09/12 14:12:24;;;;;;;8.60;4.50;;;;;27.10;96333.00;;;;8431778;28;20219;-65
2022/09/12 14:16:28;;;;;;;6.15;5.00;;;;;27.00;96336.00;;;;8431951;28;20653;-65
2022/09/12 14:20:37;;;;;;;4.85;4.38;;;;;26.80;96335.00;;;;8431833;28;20234;-65
2022/09/12 14:25:14;;;;;;;8.05;4.82;;;;;26.70;96335.00;;;;8431903;28;20261;-64
2022/09/12 14:29:18;;;;;;;4.85;4.03;;;;;26.70;96332.00;;;;8431789;28;20633;-64
2022/09/12 14:33:54;;;;;;;6.25;4.60;;;;;26.60;96330.00;;;;8431808;28;20234;-64
2022/09/12 14:38:07;;;;;;;4.65;4.30;;;;;26.50;96323.00;;;;8431820;28;20610;-64
2022/09/12 14:42:21;;;;;;;4.70;4.30;;;;;26.40;96324.00;;;;8431814;28;20253;-64
2022/09/12 14:46:30;;;;;;;6.20;4.40;;;;;26.30;96325.00;;;;8397267;28;20223;-65
2022/09/12 14:51:01;;;;;;;4.82;3.78;;;;;26.30;96319.00;;;;8398196;28;20614;-65
2022/09/12 14:55:23;;;;;;;4.22;3.92;;;;;26.20;96312.00;;;;8397042;28;20212;-64
2022/09/12 14:59:29;;;;;;;4.85;4.07;;;;;26.20;96315.00;;;;8397529;28;20235;-65
2022/09/12 15:04:03;;;;;;;4.13;3.83;;;;;26.20;96322.00;;;;8397180;28;20545;-64
2022/09/12 15:08:15;;;;;;;3.85;3.55;;;;;26.20;96314.00;;;;8397197;28;20278;-64
2022/09/12 15:12:19;;;;;;;6.05;4.05;;;;;26.00;96311.00;;;;8396815;28;20215;-64
2022/09/12 15:16:22;;;;;;;4.00;3.70;;;;;25.70;96314.00;;;;8396550;28;20232;-64
2022/09/12 15:21:02;;;;;;;4.00;3.63;;;;;25.60;96312.00;;;;8396482;28;20269;-65
2022/09/12 15:25:06;;;;;;;4.07;3.67;;;;;25.50;96305.00;;;;8396455;28;20620;-64
2022/09/12 15:29:10;;;;;;;4.18;3.78;;;;;25.40;96310.00;;;;8395818;28;20215;-64
2022/09/12 15:33:47;;;;;;;4.85;4.10;;;;;25.30;96303.00;;;;8396449;28;20219;-64
2022/09/12 15:37:50;;;;;;;4.10;3.78;;;;;25.20;96307.00;;;;8395782;28;20234;-64
2022/09/12 15:41:54;;;;;;;4.18;3.75;;;;;25.10;96309.00;;;;8396734;28;20223;-64
2022/09/12 15:45:58;;;;;;;4.93;4.00;;;;;24.90;96303.00;;;;8395450;28;20224;-65
2022/09/12 15:50:32;;;;;;;4.07;3.75;;;;;24.70;96291.00;;;;8395799;28;20224;-64
2022/09/12 15:54:36;;;;;;;3.97;3.50;;;;;24.70;96292.00;;;;8395403;28;20298;-64
2022/09/12 15:58:39;;;;;;;4.53;3.75;;;;;24.60;96293.00;;;;8395750;28;20265;-64
2022/09/12 16:02:58;;;;;;;8.02;4.10;;;;;24.60;96282.00;;;;8394941;28;20727;-64
2022/09/12 16:07:32;;;;;;;4.20;3.90;;;;;24.70;96280.00;;;;8395389;28;20235;-64
2022/09/12 16:11:35;;;;;;;4.05;3.70;;;;;25.20;96279.00;;;;8395071;28;20223;-64
2022/09/12 16:15:38;;;;;;;4.18;3.88;;;;;25.50;96283.00;;;;8395180;28;20220;-65
2022/09/12 16:20:17;;;;;;;3.88;3.58;;;;;26.00;96288.00;;;;8394823;28;20224;-65
2022/09/12 16:24:20;;;;;;;6.15;3.80;;;;;26.50;96283.00;;;;8394341;28;20626;-65
2022/09/12 16:28:23;;;;;;;4.10;3.10;;;;;26.70;96282.00;;;;8395150;28;20688;-65
2022/09/12 16:33:01;;;;;;;3.67;3.38;;;;;26.30;96272.00;;;;8394539;28;20219;-65
2022/09/12 16:37:05;;;;;;;3.95;3.45;;;;;25.90;96275.00;;;;8393931;28;20219;-66
2022/09/12 16:41:08;;;;;;;3.67;3.38;;;;;25.50;96272.00;;;;8394131;28;20235;-66
2022/09/12 16:45:13;;;;;;;3.80;3.50;;;;;25.30;96271.00;;;;8394241;28;20668;-65
2022/09/12 16:49:40;;;;;;;3.53;3.33;;;;;24.90;96264.00;;;;8394520;28;20224;-66
2022/09/12 16:53:45;;;;;;;5.90;3.83;;;;;24.60;96262.00;;;;8394335;28;20216;-65
2022/09/12 16:57:48;;;;;;;4.22;3.58;;;;;24.20;96270.00;;;;8394150;28;20215;-66
2022/09/12 17:01:52;;;;;;;3.90;3.60;;;;;23.90;96257.00;;;;8394239;28;20557;-65
2022/09/12 17:06:29;;;;;;;5.13;3.80;;;;;23.50;96259.00;;;;8394089;28;20322;-65
2022/09/12 17:10:34;;;;;;;4.78;3.85;;;;;23.20;96260.00;;;;8394464;28;20230;-65
2022/09/12 17:14:37;;;;;;;4.45;3.97;;;;;22.80;96255.00;;;;8393592;28;20220;-65
2022/09/12 17:19:16;;;;;;;5.25;3.63;;;;;22.50;96259.00;;;;8393809;28;20231;-65
2022/09/12 17:23:19;;;;;;;4.40;4.00;;;;;22.10;96248.00;;;;8393692;28;20216;-65
2022/09/12 17:27:23;;;;;;;5.18;4.63;;;;;21.70;96248.00;;;;8393370;28;20529;-66
2022/09/12 17:31:26;;;;;;;8.13;4.30;;;;;21.30;96248.00;;;;8393919;28;20219;-65
2022/09/12 17:35:32;;;;;;;5.05;4.55;;;;;20.70;96249.00;;;;8393808;28;20357;-65
2022/09/12 17:39:35;;;;;;;6.80;4.57;;;;;20.30;96253.00;;;;8394136;28;20657;-65
2022/09/12 17:43:39;;;;;;;9.63;4.78;;;;;19.90;96247.00;;;;8393284;28;20696;-65
2022/09/12 17:47:43;;;;;;;6.95;4.90;;;;;19.40;96252.00;;;;8393527;28;20235;-65
2022/09/12 17:51:45;;;;;;;7.97;5.63;;;;;19.10;96253.00;;;;8399474;28;20235;-65
2022/09/12 17:55:49;;;;;;;5.00;4.45;;;;;18.70;96248.00;;;;8399025;28;20223;-65
2022/09/12 18:02:11;;;;;;;8.40;5.50;;;;;18.30;96248.00;;;;8399803;28;20224;-65
2022/09/12 18:04:48;;;;;;;6.60;5.15;;;;;18.00;96248.00;;;;8398372;28;20676;-65
2022/09/12 18:08:51;;;;;;;9.25;5.82;;;;;17.70;96254.00;;;;8399103;28;20273;-65
2022/09/12 18:12:54;;;;;;;9.68;6.55;;;;;17.40;96254.00;;;;8399127;28;20231;-65
2022/09/12 18:16:59;;;;;;;11.63;6.90;;;;;17.20;96256.00;;;;8399132;28;20227;-65
2022/09/12 18:21:05;;;;;;;9.48;6.97;;;;;17.10;96245.00;;;;8398413;28;20219;-65
2022/09/12 18:25:38;;;;;;;10.82;7.65;;;;;16.90;96241.00;;;;8398946;28;20310;-65
2022/09/12 18:29:41;;;;;;;11.38;7.80;;;;;16.80;96242.00;;;;8398339;28;20326;-65
2022/09/12 18:33:59;;;;;;;14.30;8.05;;;;;16.60;96241.00;;;;8398459;28;20220;-65
2022/09/12 18:38:03;;;;;;;12.00;7.57;;;;;16.60;96239.00;;;;8398092;28;20534;-65
2022/09/12 18:42:37;;;;;;;13.15;8.45;;;;;16.40;96235.00;;;;8398501;28;20220;-65
2022/09/12 18:46:40;;;;;;;13.43;8.13;;;;;16.30;96245.00;;;;8397253;28;20207;-65
2022/09/12 18:50:43;;;;;;;13.75;8.02;;;;;16.30;96247.00;;;;8398203;28;20657;-65
2022/09/12 18:55:21;;;;;;;11.85;7.68;;;;;16.20;96248.00;;;;8397005;28;20231;-65
2022/09/12 18:59:26;;;;;;;10.45;7.60;;;;;16.10;96240.00;;;;8397288;28;20223;-65
2022/09/12 19:03:30;;;;;;;8.95;6.88;;;;;16.10;96244.00;;;;8397185;28;20650;-64
2022/09/12 19:08:03;;;;;;;8.45;6.20;;;;;16.10;96247.00;;;;8396871;28;20216;-65
2022/09/12 19:12:07;;;;;;;10.73;6.97;;;;;16.00;96248.00;;;;8396530;28;20242;-65
2022/09/12 19:16:14;;;;;;;18.83;7.20;;;;;15.90;96248.00;;;;8396787;28;20683;-65
2022/09/12 19:20:50;;;;;;;9.27;6.75;;;;;15.70;96258.00;;;;8396542;28;20227;-65
2022/09/12 19:24:53;;;;;;;14.05;8.13;;;;;15.60;96247.00;;;;8397265;28;20219;-64
2022/09/12 19:28:56;;;;;;;11.82;6.57;;;;;15.60;96248.00;;;;8396767;28;20650;-64
2022/09/12 19:33:34;;;;;;;11.65;6.95;;;;;15.50;96238.00;;;;8396582;28;20676;-65
2022/09/12 19:37:38;;;;;;;9.48;7.20;;;;;15.30;96235.00;;;;8396305;28;20282;-64
2022/09/12 19:41:41;;;;;;;10.70;7.00;;;;;15.20;96235.00;;;;8396484;28;20224;-65
2022/09/12 19:46:19;;;;;;;10.10;7.03;;;;;15.10;96236.00;;;;8396300;28;20572;-64
2022/09/12 19:50:24;;;;;;;12.25;7.55;;;;;14.90;96228.00;;;;8395612;28;20224;-64
2022/09/12 19:54:27;;;;;;;9.93;7.22;;;;;14.80;96229.00;;;;8396383;28;20664;-64
2022/09/12 19:58:30;;;;;;;12.55;7.78;;;;;14.70;96223.00;;;;8395178;28;20219;-64
2022/09/12 20:02:33;;;;;;;11.75;7.70;;;;;14.70;96221.00;;;;8395754;28;20227;-64
2022/09/12 20:06:38;;;;;;;14.43;8.60;;;;;14.60;96220.00;;;;8395428;28;20243;-64
2022/09/12 20:10:41;;;;;;;17.67;8.65;;;;;14.50;96227.00;;;;8394396;28;20224;-65
2022/09/12 20:14:45;;;;;;;15.75;9.70;;;;;14.40;96216.00;;;;8393741;28;20224;-64
2022/09/12 20:18:48;;;;;;;15.63;8.02;;;;;14.30;96216.00;;;;8395472;28;20684;-64
2022/09/12 20:22:54;;;;;;;12.40;7.95;;;;;14.20;96219.00;;;;8394499;28;20243;-65
2022/09/12 20:26:57;;;;;;;11.82;7.68;;;;;14.20;96223.00;;;;8395148;28;20668;-64
2022/09/12 20:31:34;;;;;;;14.05;9.00;;;;;14.10;96212.00;;;;8394895;28;20569;-64
2022/09/12 20:35:37;;;;;;;12.98;8.85;;;;;14.10;96209.00;;;;8394420;28;20695;-64
2022/09/12 20:39:42;;;;;;;16.55;8.90;;;;;14.10;96213.00;;;;8394672;28;20573;-64
2022/09/12 20:44:18;;;;;;;12.95;8.48;;;;;14.00;96203.00;;;;8394790;28;20227;-64
2022/09/12 20:48:21;;;;;;;20.38;9.20;;;;;14.00;96203.00;;;;8394152;28;20664;-64
2022/09/12 20:52:24;;;;;;;14.43;8.50;;;;;13.80;96211.00;;;;8394201;28;20226;-64
2022/09/12 20:56:31;;;;;;;17.15;8.98;;;;;13.80;96209.00;;;;8393703;28;20223;-64
2022/09/12 21:01:07;;;;;;;13.25;7.88;;;;;13.80;96209.00;;;;8394189;28;20296;-64
2022/09/12 21:05:10;;;;;;;14.13;8.50;;;;;13.90;96200.00;;;;8394265;28;20242;-64